createdAt,value
2019-04-29T00:00:54.116Z,91.70
2019-04-29T00:01:58.874Z,91.70
2019-04-29T00:03:03.357Z,91.30
2019-04-29T00:04:13.515Z,91.60
2019-04-29T00:05:17.798Z,91.70
2019-04-29T00:06:22.134Z,91.60
2019-04-29T00:07:27.950Z,91.70
2019-04-29T00:08:33.864Z,91.60
2019-04-29T00:09:39.610Z,91.70
2019-04-29T00:10:44.558Z,91.70
2019-04-29T00:11:48.699Z,91.70
2019-04-29T00:12:52.954Z,91.70
2019-04-29T00:13:57.099Z,91.70
2019-04-29T00:15:11.882Z,91.70
2019-04-29T00:16:34.388Z,91.70
2019-04-29T00:17:55.595Z,91.80
2019-04-29T00:19:12.616Z,91.80
2019-04-29T00:20:30.682Z,91.80
2019-04-29T00:21:37.422Z,91.90
2019-04-29T00:22:41.590Z,91.90
2019-04-29T00:23:46.387Z,92.00
2019-04-29T00:24:52.072Z,91.90
2019-04-29T00:25:56.444Z,91.90
2019-04-29T00:27:04.028Z,91.90
2019-04-29T00:28:06.426Z,91.90
2019-04-29T00:29:12.394Z,91.90
2019-04-29T00:30:22.046Z,91.90
2019-04-29T00:31:26.125Z,91.90
2019-04-29T00:32:32.641Z,92.00
2019-04-29T00:33:36.808Z,92.00
2019-04-29T00:34:40.961Z,92.00
2019-04-29T00:35:47.717Z,92.00
2019-04-29T00:36:57.429Z,92.00
2019-04-29T00:38:22.884Z,91.90
2019-04-29T00:39:47.936Z,92.00
2019-04-29T00:41:03.922Z,91.90
2019-04-29T00:42:15.908Z,91.90
2019-04-29T00:43:39.162Z,92.00
2019-04-29T00:44:46.612Z,92.00
2019-04-29T00:45:54.709Z,92.00
2019-04-29T00:47:00.497Z,91.90
2019-04-29T00:48:06.319Z,91.90
2019-04-29T00:49:13.002Z,91.90
2019-04-29T00:50:16.589Z,91.90
2019-04-29T00:51:21.078Z,91.90
2019-04-29T00:52:26.157Z,91.90
2019-04-29T00:53:34.714Z,92.30
2019-04-29T00:54:54.792Z,92.00
2019-04-29T00:56:00.554Z,92.10
2019-04-29T00:57:06.684Z,92.10
2019-04-29T00:58:13.754Z,92.00
2019-04-29T00:59:26.202Z,92.00
2019-04-29T01:00:35.994Z,92.00
2019-04-29T01:01:40.333Z,92.30
2019-04-29T01:02:47.548Z,92.00
2019-04-29T01:03:52.778Z,92.00
2019-04-29T01:05:00.468Z,92.00
2019-04-29T01:06:07.744Z,92.00
2019-04-29T01:07:14.061Z,92.00
2019-04-29T01:08:28.335Z,92.00
2019-04-29T01:09:35.771Z,91.90
2019-04-29T01:10:42.443Z,92.00
2019-04-29T01:11:47.476Z,92.00
2019-04-29T01:12:53.512Z,92.00
2019-04-29T01:14:03.966Z,92.00
2019-04-29T01:15:08.472Z,92.00
2019-04-29T01:16:16.780Z,92.00
2019-04-29T01:17:21.721Z,92.00
2019-04-29T01:18:27.522Z,92.00
2019-04-29T01:19:34.467Z,92.00
2019-04-29T01:20:38.564Z,92.00
2019-04-29T01:21:44.619Z,92.10
2019-04-29T01:22:48.954Z,92.10
2019-04-29T01:23:53.158Z,92.10
2019-04-29T01:25:00.154Z,92.10
2019-04-29T01:26:23.963Z,92.10
2019-04-29T01:27:29.818Z,92.10
2019-04-29T01:28:38.848Z,92.40
2019-04-29T01:29:45.771Z,92.10
2019-04-29T01:30:55.325Z,92.10
2019-04-29T01:31:59.462Z,92.10
2019-04-29T01:33:08.009Z,92.10
2019-04-29T01:34:16.210Z,92.10
2019-04-29T01:35:23.030Z,92.10
2019-04-29T01:36:40.344Z,92.10
2019-04-29T01:37:47.311Z,92.10
2019-04-29T01:38:53.154Z,92.20
2019-04-29T01:40:15.226Z,92.20
2019-04-29T01:41:29.629Z,92.20
2019-04-29T01:42:37.922Z,92.20
2019-04-29T01:44:00.053Z,92.20
2019-04-29T01:45:05.756Z,92.30
2019-04-29T01:46:09.965Z,92.20
2019-04-29T01:47:15.600Z,92.20
2019-04-29T01:48:19.706Z,92.20
2019-04-29T01:49:23.850Z,92.20
2019-04-29T01:50:27.876Z,92.30
2019-04-29T01:51:31.965Z,92.30
2019-04-29T01:52:36.208Z,92.20
2019-04-29T01:53:41.905Z,92.20
2019-04-29T01:54:46.139Z,92.30
2019-04-29T01:55:53.043Z,92.30
2019-04-29T01:56:57.271Z,92.20
2019-04-29T01:58:01.343Z,92.20
2019-04-29T01:59:05.551Z,92.30
2019-04-29T02:00:12.410Z,92.20
2019-04-29T02:01:16.886Z,92.20
2019-04-29T02:02:25.130Z,92.20
2019-04-29T02:03:28.175Z,92.30
2019-04-29T02:04:32.317Z,92.30
2019-04-29T02:05:36.462Z,92.30
2019-04-29T02:06:40.561Z,92.40
2019-04-29T02:07:44.740Z,92.30
2019-04-29T02:08:49.923Z,92.30
2019-04-29T02:09:58.498Z,92.40
2019-04-29T02:11:08.119Z,92.40
2019-04-29T02:12:16.849Z,92.40
2019-04-29T02:13:21.049Z,92.40
2019-04-29T02:14:28.121Z,92.70
2019-04-29T02:15:33.694Z,92.30
2019-04-29T02:16:37.905Z,92.30
2019-04-29T02:17:43.333Z,92.30
2019-04-29T02:18:49.037Z,92.30
2019-04-29T02:19:55.492Z,92.30
2019-04-29T02:21:00.813Z,92.20
2019-04-29T02:22:15.063Z,92.20
2019-04-29T02:23:20.875Z,92.20
2019-04-29T02:24:25.219Z,92.10
2019-04-29T02:25:39.771Z,92.10
2019-04-29T02:26:46.743Z,92.00
2019-04-29T02:27:52.583Z,92.00
2019-04-29T02:28:58.227Z,92.00
2019-04-29T02:30:05.304Z,92.10
2019-04-29T02:31:27.355Z,92.00
2019-04-29T02:32:31.585Z,92.10
2019-04-29T02:33:36.865Z,92.10
2019-04-29T02:34:42.374Z,92.10
2019-04-29T02:35:46.686Z,92.20
2019-04-29T02:36:51.838Z,92.10
2019-04-29T02:38:02.618Z,92.20
2019-04-29T02:39:25.449Z,92.10
2019-04-29T02:40:35.810Z,92.20
2019-04-29T02:41:58.041Z,92.10
2019-04-29T02:43:08.700Z,92.00
2019-04-29T02:44:14.902Z,92.00
2019-04-29T02:45:30.992Z,92.00
2019-04-29T02:46:42.587Z,91.90
2019-04-29T02:47:45.649Z,91.90
2019-04-29T02:48:49.794Z,91.90
2019-04-29T02:49:56.706Z,91.90
2019-04-29T02:51:03.938Z,91.90
2019-04-29T02:52:08.194Z,91.90
2019-04-29T02:53:15.542Z,91.80
2019-04-29T02:54:19.939Z,91.80
2019-04-29T02:55:25.674Z,91.70
2019-04-29T02:56:30.022Z,91.70
2019-04-29T02:57:49.299Z,91.80
2019-04-29T02:58:55.203Z,91.80
2019-04-29T03:00:01.034Z,91.90
2019-04-29T03:01:27.339Z,91.90
2019-04-29T03:02:33.934Z,91.90
2019-04-29T03:03:46.776Z,91.90
2019-04-29T03:04:52.603Z,91.90
2019-04-29T03:06:01.351Z,91.90
2019-04-29T03:07:08.524Z,91.90
2019-04-29T03:08:12.851Z,91.90
2019-04-29T03:09:17.024Z,91.90
2019-04-29T03:10:21.209Z,92.20
2019-04-29T03:11:25.823Z,91.90
2019-04-29T03:12:30.134Z,92.20
2019-04-29T03:13:36.178Z,91.90
2019-04-29T03:14:40.409Z,91.90
2019-04-29T03:15:44.818Z,91.90
2019-04-29T03:16:51.363Z,91.90
2019-04-29T03:17:57.201Z,91.90
2019-04-29T03:19:03.124Z,91.90
2019-04-29T03:20:09.192Z,92.00
2019-04-29T03:21:20.975Z,91.90
2019-04-29T03:22:25.550Z,91.90
2019-04-29T03:23:30.173Z,91.80
2019-04-29T03:24:34.433Z,91.90
2019-04-29T03:25:38.700Z,91.80
2019-04-29T03:26:42.974Z,91.80
2019-04-29T03:27:47.242Z,91.80
2019-04-29T03:28:51.437Z,91.80
2019-04-29T03:29:56.392Z,91.70
2019-04-29T03:31:02.211Z,91.70
2019-04-29T03:32:06.512Z,91.80
2019-04-29T03:33:10.678Z,91.80
2019-04-29T03:34:16.356Z,91.80
2019-04-29T03:35:20.603Z,91.90
2019-04-29T03:36:24.724Z,91.80
2019-04-29T03:37:30.251Z,91.80
2019-04-29T03:38:39.967Z,91.80
2019-04-29T03:39:49.876Z,91.80
2019-04-29T03:40:54.107Z,91.80
2019-04-29T03:41:58.297Z,91.70
2019-04-29T03:43:02.477Z,91.70
2019-04-29T03:44:06.812Z,91.70
2019-04-29T03:45:13.472Z,91.70
2019-04-29T03:46:17.645Z,91.70
2019-04-29T03:47:22.437Z,91.60
2019-04-29T03:48:28.944Z,91.60
2019-04-29T03:49:34.161Z,91.60
2019-04-29T03:50:38.305Z,91.60
2019-04-29T03:51:42.459Z,91.60
2019-04-29T03:52:47.565Z,91.60
2019-04-29T03:53:53.063Z,91.50
2019-04-29T03:54:57.283Z,91.50
2019-04-29T03:56:01.579Z,91.60
2019-04-29T03:57:06.380Z,91.80
2019-04-29T03:58:10.716Z,91.50
2019-04-29T03:59:14.874Z,91.60
2019-04-29T04:00:19.164Z,91.60
2019-04-29T04:01:27.873Z,91.60
2019-04-29T04:02:49.934Z,91.60
2019-04-29T04:04:06.252Z,91.50
2019-04-29T04:05:31.394Z,91.50
2019-04-29T04:06:46.429Z,91.60
2019-04-29T04:07:55.176Z,91.50
2019-04-29T04:09:06.711Z,91.50
2019-04-29T04:10:11.309Z,91.50
2019-04-29T04:11:20.154Z,91.50
2019-04-29T04:12:28.724Z,91.50
2019-04-29T04:13:34.268Z,91.40
2019-04-29T04:14:38.376Z,91.40
2019-04-29T04:15:42.772Z,91.60
2019-04-29T04:17:05.170Z,91.40
2019-04-29T04:18:29.352Z,91.30
2019-04-29T04:19:33.951Z,91.30
2019-04-29T04:20:38.779Z,91.20
2019-04-29T04:21:43.134Z,91.20
2019-04-29T04:22:48.598Z,91.20
2019-04-29T04:23:57.950Z,91.20
2019-04-29T04:25:02.742Z,91.10
2019-04-29T04:26:07.422Z,91.10
2019-04-29T04:27:12.557Z,91.10
2019-04-29T04:28:18.350Z,91.10
2019-04-29T04:29:22.516Z,91.00
2019-04-29T04:30:27.041Z,91.00
2019-04-29T04:31:31.962Z,91.00
2019-04-29T04:32:36.982Z,91.00
2019-04-29T04:33:41.350Z,91.00
2019-04-29T04:34:47.026Z,91.00
2019-04-29T04:35:51.321Z,90.90
2019-04-29T04:36:59.924Z,91.00
2019-04-29T04:38:03.839Z,91.00
2019-04-29T04:39:09.100Z,90.90
2019-04-29T04:40:16.994Z,90.90
2019-04-29T04:41:21.334Z,90.90
2019-04-29T04:42:29.441Z,90.90
2019-04-29T04:43:31.498Z,90.80
2019-04-29T04:44:51.759Z,90.80
2019-04-29T04:45:55.835Z,90.80
2019-04-29T04:47:00.098Z,90.70
2019-04-29T04:48:04.320Z,90.70
2019-04-29T04:49:10.294Z,90.70
2019-04-29T04:50:16.179Z,90.70
2019-04-29T04:51:20.325Z,90.70
2019-04-29T04:52:24.530Z,90.70
2019-04-29T04:53:28.704Z,90.80
2019-04-29T04:54:32.946Z,90.70
2019-04-29T04:55:38.874Z,90.60
2019-04-29T04:56:43.095Z,90.60
2019-04-29T04:57:47.161Z,90.60
2019-04-29T04:58:52.052Z,90.60
2019-04-29T04:59:56.279Z,90.50
2019-04-29T05:01:00.471Z,90.40
2019-04-29T05:02:04.711Z,90.20
2019-04-29T05:03:09.202Z,90.20
2019-04-29T05:04:13.445Z,90.30
2019-04-29T05:05:17.734Z,90.10
2019-04-29T05:06:22.068Z,90.20
2019-04-29T05:07:26.225Z,90.10
2019-04-29T05:08:30.549Z,90.10
2019-04-29T05:09:34.949Z,90.00
2019-04-29T05:10:39.203Z,90.00
2019-04-29T05:11:44.611Z,90.00
2019-04-29T05:12:48.855Z,89.80
2019-04-29T05:13:52.998Z,89.60
2019-04-29T05:14:58.604Z,89.30
2019-04-29T05:16:04.336Z,89.20
2019-04-29T05:17:08.645Z,89.20
2019-04-29T05:18:15.378Z,89.30
2019-04-29T05:19:19.552Z,89.20
2019-04-29T05:20:23.744Z,89.10
2019-04-29T05:21:30.638Z,88.80
2019-04-29T05:22:35.003Z,88.70
2019-04-29T05:23:41.659Z,88.40
2019-04-29T05:24:44.998Z,88.40
2019-04-29T05:25:49.234Z,88.30
2019-04-29T05:26:53.393Z,88.30
2019-04-29T05:27:57.685Z,88.30
2019-04-29T05:29:01.862Z,88.30
2019-04-29T05:30:08.061Z,88.30
2019-04-29T05:31:12.292Z,88.30
2019-04-29T05:32:16.569Z,88.30
2019-04-29T05:33:20.982Z,88.10
2019-04-29T05:34:26.855Z,88.10
2019-04-29T05:35:32.773Z,88.00
2019-04-29T05:36:44.280Z,88.00
2019-04-29T05:37:52.681Z,88.00
2019-04-29T05:38:58.618Z,88.00
2019-04-29T05:40:02.886Z,88.00
2019-04-29T05:41:07.246Z,87.90
2019-04-29T05:42:16.013Z,87.80
2019-04-29T05:43:18.984Z,87.70
2019-04-29T05:44:44.323Z,87.70
2019-04-29T05:46:07.565Z,87.50
2019-04-29T05:47:18.007Z,87.50
2019-04-29T05:48:21.632Z,87.50
2019-04-29T05:49:30.320Z,87.50
2019-04-29T05:50:47.486Z,87.40
2019-04-29T05:52:02.035Z,87.20
2019-04-29T05:53:17.790Z,87.20
2019-04-29T05:54:26.898Z,87.20
2019-04-29T05:55:30.467Z,87.00
2019-04-29T05:56:34.738Z,86.60
2019-04-29T05:57:42.835Z,86.60
2019-04-29T05:58:46.313Z,86.60
2019-04-29T05:59:50.452Z,86.50
2019-04-29T06:01:02.491Z,86.40
2019-04-29T06:02:06.752Z,86.40
2019-04-29T06:03:11.006Z,86.40
2019-04-29T06:04:16.434Z,86.10
2019-04-29T06:05:21.031Z,85.80
2019-04-29T06:06:25.280Z,85.50
2019-04-29T06:07:29.625Z,85.40
2019-04-29T06:08:34.508Z,85.40
2019-04-29T06:09:39.736Z,85.20
2019-04-29T06:10:44.029Z,85.10
2019-04-29T06:11:48.144Z,85.00
2019-04-29T06:12:52.320Z,84.80
2019-04-29T06:13:56.664Z,85.60
2019-04-29T06:15:00.910Z,84.80
2019-04-29T06:16:05.108Z,85.10
2019-04-29T06:17:09.414Z,84.40
2019-04-29T06:18:13.626Z,84.10
2019-04-29T06:19:17.722Z,83.80
2019-04-29T06:20:22.879Z,83.70
2019-04-29T06:21:27.287Z,83.70
2019-04-29T06:22:31.441Z,83.60
2019-04-29T06:23:35.595Z,83.60
2019-04-29T06:24:41.176Z,84.40
2019-04-29T06:25:45.665Z,83.50
2019-04-29T06:26:49.827Z,83.30
2019-04-29T06:27:57.234Z,83.00
2019-04-29T06:29:01.517Z,83.30
2019-04-29T06:30:07.195Z,83.50
2019-04-29T06:31:11.384Z,83.50
2019-04-29T06:32:20.198Z,83.20
2019-04-29T06:33:28.889Z,82.90
2019-04-29T06:34:35.402Z,82.30
2019-04-29T06:35:39.235Z,82.00
2019-04-29T06:36:43.418Z,82.50
2019-04-29T06:37:47.648Z,81.70
2019-04-29T06:38:51.769Z,81.10
2019-04-29T06:39:55.979Z,80.60
2019-04-29T06:41:00.264Z,80.40
2019-04-29T06:42:04.494Z,80.30
2019-04-29T06:43:08.573Z,80.00
2019-04-29T06:44:16.666Z,79.60
2019-04-29T06:45:18.882Z,79.20
2019-04-29T06:46:23.087Z,79.20
2019-04-29T06:47:29.752Z,79.10
2019-04-29T06:48:33.286Z,79.10
2019-04-29T06:49:39.003Z,79.10
2019-04-29T06:50:44.839Z,78.80
2019-04-29T06:51:51.230Z,78.90
2019-04-29T06:52:56.460Z,78.90
2019-04-29T06:54:00.842Z,79.20
2019-04-29T06:55:06.298Z,79.40
2019-04-29T06:56:10.615Z,79.50
2019-04-29T06:57:14.783Z,79.00
2019-04-29T06:58:18.944Z,78.80
2019-04-29T06:59:23.232Z,78.70
2019-04-29T07:00:27.373Z,78.50
2019-04-29T07:01:33.096Z,78.30
2019-04-29T07:02:37.398Z,78.10
2019-04-29T07:03:41.548Z,78.10
2019-04-29T07:04:45.747Z,77.70
2019-04-29T07:05:51.621Z,77.50
2019-04-29T07:06:57.948Z,77.30
2019-04-29T07:08:03.680Z,77.30
2019-04-29T07:09:07.978Z,77.30
2019-04-29T07:10:16.571Z,77.30
2019-04-29T07:11:18.275Z,77.60
2019-04-29T07:12:22.547Z,77.70
2019-04-29T07:13:26.643Z,77.90
2019-04-29T07:14:33.314Z,77.90
2019-04-29T07:15:36.712Z,77.60
2019-04-29T07:16:40.863Z,77.30
2019-04-29T07:17:47.946Z,77.00
2019-04-29T07:18:53.820Z,76.80
2019-04-29T07:20:01.994Z,76.30
2019-04-29T07:21:07.514Z,76.30
2019-04-29T07:22:09.607Z,76.00
2019-04-29T07:23:13.817Z,75.80
2019-04-29T07:24:20.317Z,75.80
2019-04-29T07:25:28.861Z,75.90
2019-04-29T07:26:31.244Z,75.70
2019-04-29T07:27:42.969Z,75.40
2019-04-29T07:28:43.502Z,75.40
2019-04-29T07:29:47.708Z,75.20
2019-04-29T07:31:02.639Z,74.80
2019-04-29T07:31:59.314Z,74.50
2019-04-29T07:33:05.541Z,74.50
2019-04-29T07:34:10.886Z,74.40
2019-04-29T07:35:15.436Z,74.30
2019-04-29T07:36:22.839Z,74.10
2019-04-29T07:37:25.640Z,73.60
2019-04-29T07:38:40.753Z,73.40
2019-04-29T07:39:40.218Z,73.40
2019-04-29T07:40:44.647Z,73.10
2019-04-29T07:41:53.692Z,72.90
2019-04-29T07:42:57.984Z,73.10
2019-04-29T07:44:04.747Z,72.50
2019-04-29T07:45:14.470Z,72.30
2019-04-29T07:46:22.396Z,72.40
2019-04-29T07:47:29.568Z,72.20
2019-04-29T07:48:42.026Z,71.90
2019-04-29T07:49:51.027Z,71.70
2019-04-29T07:50:54.814Z,71.50
2019-04-29T07:53:44.785Z,71.30
2019-04-29T07:54:54.890Z,71.70
2019-04-29T07:55:56.946Z,71.70
2019-04-29T07:57:01.253Z,71.80
2019-04-29T07:58:08.258Z,71.80
2019-04-29T07:59:12.630Z,72.10
2019-04-29T08:00:18.570Z,72.10
2019-04-29T08:01:24.520Z,72.20
2019-04-29T08:02:29.033Z,71.90
2019-04-29T08:03:33.238Z,71.70
2019-04-29T08:04:40.327Z,72.00
2019-04-29T08:05:43.364Z,72.00
2019-04-29T08:06:47.641Z,72.10
2019-04-29T08:07:52.306Z,72.20
2019-04-29T08:09:07.419Z,72.30
2019-04-29T08:10:22.872Z,72.10
2019-04-29T08:11:12.856Z,72.10
2019-04-29T08:12:18.235Z,72.40
2019-04-29T08:13:24.514Z,73.20
2019-04-29T08:14:31.774Z,72.70
2019-04-29T08:15:36.757Z,73.50
2019-04-29T08:16:41.893Z,72.40
2019-04-29T08:17:46.158Z,72.20
2019-04-29T08:18:53.476Z,72.00
2019-04-29T08:19:56.183Z,72.00
2019-04-29T08:21:00.437Z,72.10
2019-04-29T08:22:04.660Z,72.00
2019-04-29T08:23:08.856Z,71.90
2019-04-29T08:24:15.794Z,72.00
2019-04-29T08:25:21.770Z,71.80
2019-04-29T08:26:26.105Z,71.80
2019-04-29T08:27:39.809Z,71.90
2019-04-29T08:28:37.593Z,72.00
2019-04-29T08:29:41.707Z,72.00
2019-04-29T08:30:46.249Z,72.00
2019-04-29T08:31:56.304Z,72.10
2019-04-29T08:32:57.355Z,72.20
2019-04-29T08:34:01.471Z,72.20
2019-04-29T08:35:07.247Z,72.20
2019-04-29T08:36:11.362Z,72.20
2019-04-29T08:37:15.514Z,72.20
2019-04-29T08:38:19.632Z,72.20
2019-04-29T08:39:24.994Z,71.90
2019-04-29T08:40:34.020Z,71.60
2019-04-29T08:41:36.981Z,71.00
2019-04-29T08:42:48.456Z,71.50
2019-04-29T08:44:14.985Z,71.10
2019-04-29T08:45:14.994Z,71.20
2019-04-29T08:46:27.233Z,71.20
2019-04-29T08:47:33.150Z,71.10
2019-04-29T08:48:37.235Z,71.30
2019-04-29T08:49:41.398Z,71.10
2019-04-29T08:50:48.248Z,71.00
2019-04-29T08:51:52.381Z,70.70
2019-04-29T08:52:56.557Z,70.70
2019-04-29T08:54:00.705Z,70.70
2019-04-29T08:55:05.337Z,70.70
2019-04-29T08:56:10.134Z,70.60
2019-04-29T08:57:16.915Z,70.60
2019-04-29T08:58:20.993Z,70.60
2019-04-29T08:59:25.832Z,70.60
2019-04-29T09:00:30.166Z,70.40
2019-04-29T09:01:35.805Z,70.40
2019-04-29T09:02:41.530Z,70.00
2019-04-29T09:03:45.935Z,70.00
2019-04-29T09:04:53.742Z,69.90
2019-04-29T09:06:05.269Z,69.90
2019-04-29T09:07:11.958Z,69.80
2019-04-29T09:08:07.382Z,69.80
2019-04-29T09:09:27.933Z,69.60
2019-04-29T09:10:17.572Z,69.50
2019-04-29T09:11:21.912Z,69.30
2019-04-29T09:12:29.632Z,69.40
2019-04-29T09:13:33.974Z,69.40
2019-04-29T09:14:40.676Z,69.00
2019-04-29T09:15:44.125Z,69.00
2019-04-29T09:16:48.196Z,68.70
2019-04-29T09:17:52.595Z,68.70
2019-04-29T09:18:56.695Z,68.40
2019-04-29T09:20:00.823Z,68.10
2019-04-29T09:21:06.768Z,68.30
2019-04-29T09:22:14.998Z,67.90
2019-04-29T09:23:19.864Z,67.80
2019-04-29T09:24:26.371Z,67.80
2019-04-29T09:25:32.232Z,67.80
2019-04-29T09:26:40.205Z,67.60
2019-04-29T09:27:46.228Z,67.50
2019-04-29T09:28:50.530Z,67.10
2019-04-29T09:29:58.896Z,66.60
2019-04-29T09:31:00.411Z,66.50
2019-04-29T09:32:05.818Z,66.50
2019-04-29T09:33:13.095Z,66.10
2019-04-29T09:34:19.919Z,66.00
2019-04-29T09:35:21.662Z,65.60
2019-04-29T09:36:28.659Z,65.40
2019-04-29T09:37:31.517Z,65.20
2019-04-29T09:38:36.804Z,65.20
2019-04-29T09:39:45.333Z,64.80
2019-04-29T09:40:54.477Z,64.60
2019-04-29T09:41:58.494Z,63.80
2019-04-29T09:43:15.369Z,63.60
2019-04-29T09:44:30.121Z,63.30
2019-04-29T09:45:36.131Z,63.40
2019-04-29T09:46:41.785Z,63.50
2019-04-29T09:47:47.146Z,63.50
2019-04-29T09:48:51.375Z,63.30
2019-04-29T09:49:55.523Z,62.90
2019-04-29T09:50:59.768Z,62.80
2019-04-29T09:52:05.448Z,62.90
2019-04-29T09:53:09.608Z,63.10
2019-04-29T09:54:14.502Z,63.10
2019-04-29T09:55:20.816Z,62.90
2019-04-29T09:56:26.681Z,62.90
2019-04-29T09:57:30.791Z,62.70
2019-04-29T09:58:34.959Z,62.40
2019-04-29T09:59:46.753Z,61.90
2019-04-29T10:00:58.285Z,61.80
2019-04-29T10:02:03.014Z,61.40
2019-04-29T10:03:09.865Z,61.30
2019-04-29T10:04:15.664Z,61.30
2019-04-29T10:05:37.666Z,61.20
2019-04-29T10:06:43.470Z,60.90
2019-04-29T10:07:47.556Z,60.30
2019-04-29T10:08:51.653Z,60.40
2019-04-29T10:09:57.288Z,60.10
2019-04-29T10:11:01.684Z,60.00
2019-04-29T10:12:06.009Z,59.30
2019-04-29T10:13:10.155Z,58.20
2019-04-29T10:14:14.370Z,58.20
2019-04-29T10:15:20.346Z,58.20
2019-04-29T10:16:26.097Z,58.20
2019-04-29T10:17:34.589Z,58.10
2019-04-29T10:18:52.673Z,58.20
2019-04-29T10:20:01.227Z,58.00
2019-04-29T10:21:09.878Z,58.10
2019-04-29T10:22:14.103Z,58.00
2019-04-29T10:23:18.247Z,57.90
2019-04-29T10:24:22.358Z,57.20
2019-04-29T10:25:26.571Z,57.20
2019-04-29T10:26:30.787Z,57.00
2019-04-29T10:27:35.010Z,56.60
2019-04-29T10:28:40.821Z,56.50
2019-04-29T10:29:50.833Z,56.50
2019-04-29T10:30:53.207Z,56.60
2019-04-29T10:31:57.718Z,56.60
2019-04-29T10:33:01.887Z,55.80
2019-04-29T10:34:07.873Z,56.30
2019-04-29T10:35:12.535Z,56.40
2019-04-29T10:36:20.698Z,56.20
2019-04-29T10:37:23.756Z,56.30
2019-04-29T10:38:28.448Z,56.50
2019-04-29T10:39:49.536Z,56.50
2019-04-29T10:41:00.522Z,56.60
2019-04-29T10:42:04.011Z,56.60
2019-04-29T10:43:17.143Z,56.80
2019-04-29T10:44:23.041Z,57.00
2019-04-29T10:45:34.809Z,57.20
2019-04-29T10:46:58.755Z,56.90
2019-04-29T10:48:19.509Z,56.90
2019-04-29T10:49:28.198Z,56.70
2019-04-29T10:50:34.069Z,56.40
2019-04-29T10:51:38.271Z,56.00
2019-04-29T10:52:43.588Z,55.80
2019-04-29T10:53:50.903Z,55.60
2019-04-29T10:54:55.409Z,55.40
2019-04-29T10:56:03.617Z,55.10
2019-04-29T10:57:10.419Z,55.10
2019-04-29T10:58:13.819Z,55.10
2019-04-29T10:59:18.051Z,55.20
2019-04-29T11:00:44.931Z,55.40
2019-04-29T11:02:01.300Z,55.60
2019-04-29T11:03:05.207Z,55.70
2019-04-29T11:04:09.359Z,55.70
2019-04-29T11:05:25.558Z,55.60
2019-04-29T11:06:31.313Z,55.50
2019-04-29T11:07:37.184Z,55.50
2019-04-29T11:08:43.324Z,55.40
2019-04-29T11:09:50.849Z,55.00
2019-04-29T11:11:02.178Z,54.60
2019-04-29T11:12:02.312Z,54.30
2019-04-29T11:13:06.594Z,54.30
2019-04-29T11:14:11.465Z,54.30
2019-04-29T11:15:15.884Z,54.20
2019-04-29T11:16:22.835Z,54.30
2019-04-29T11:17:27.210Z,54.50
2019-04-29T11:18:31.408Z,54.40
2019-04-29T11:19:39.915Z,54.40
2019-04-29T11:20:44.467Z,54.00
2019-04-29T11:21:47.205Z,54.20
2019-04-29T11:23:16.296Z,54.40
2019-04-29T11:24:16.782Z,54.70
2019-04-29T11:25:22.665Z,54.90
2019-04-29T11:26:34.506Z,54.90
2019-04-29T11:27:40.291Z,54.80
2019-04-29T11:28:47.006Z,54.70
2019-04-29T11:29:50.429Z,54.50
2019-04-29T11:30:54.653Z,54.30
2019-04-29T11:31:59.737Z,54.20
2019-04-29T11:33:23.688Z,54.10
2019-04-29T11:34:35.347Z,53.70
2019-04-29T11:35:53.358Z,53.20
2019-04-29T11:36:57.522Z,53.00
2019-04-29T11:38:02.154Z,52.90
2019-04-29T11:39:09.042Z,52.50
2019-04-29T11:40:15.584Z,51.80
2019-04-29T11:41:20.891Z,51.30
2019-04-29T11:42:25.269Z,50.90
2019-04-29T11:43:29.615Z,50.90
2019-04-29T11:44:33.800Z,51.10
2019-04-29T11:45:38.961Z,51.40
2019-04-29T11:46:44.694Z,51.40
2019-04-29T11:47:51.432Z,51.10
2019-04-29T11:48:57.169Z,51.40
2019-04-29T11:50:03.085Z,51.70
2019-04-29T11:51:08.929Z,51.60
2019-04-29T11:52:15.512Z,51.70
2019-04-29T11:53:19.675Z,51.70
2019-04-29T11:54:23.949Z,51.90
2019-04-29T11:55:28.143Z,52.00
2019-04-29T11:56:32.559Z,51.60
2019-04-29T11:57:45.217Z,51.40
2019-04-29T11:59:08.335Z,51.00
2019-04-29T12:00:18.646Z,50.90
2019-04-29T12:01:39.269Z,50.90
2019-04-29T12:02:45.733Z,50.70
2019-04-29T12:04:06.654Z,50.60
2019-04-29T12:05:13.159Z,50.80
2019-04-29T12:06:20.802Z,50.90
2019-04-29T12:07:32.038Z,50.70
2019-04-29T12:08:29.167Z,50.30
2019-04-29T12:09:34.305Z,50.30
2019-04-29T12:10:46.721Z,50.30
2019-04-29T12:11:44.250Z,50.10
2019-04-29T12:12:49.089Z,49.80
2019-04-29T12:13:58.979Z,49.80
2019-04-29T12:15:18.849Z,49.60
2019-04-29T12:16:33.941Z,49.10
2019-04-29T12:17:39.745Z,49.00
2019-04-29T12:18:45.501Z,49.20
2019-04-29T12:19:51.360Z,49.40
2019-04-29T12:21:13.502Z,49.50
2019-04-29T12:22:28.205Z,49.80
2019-04-29T12:23:23.617Z,50.00
2019-04-29T12:24:27.768Z,49.70
2019-04-29T12:25:36.280Z,49.60
2019-04-29T12:26:43.214Z,49.60
2019-04-29T12:27:43.855Z,49.70
2019-04-29T12:28:47.989Z,49.60
2019-04-29T12:29:54.466Z,49.70
2019-04-29T12:30:59.615Z,50.60
2019-04-29T12:32:05.542Z,50.00
2019-04-29T12:33:14.429Z,50.10
2019-04-29T12:34:32.264Z,50.20
2019-04-29T12:35:51.758Z,50.40
2019-04-29T12:36:55.740Z,50.70
2019-04-29T12:38:05.848Z,51.00
2019-04-29T12:39:42.821Z,50.70
2019-04-29T12:40:45.486Z,50.50
2019-04-29T12:42:06.865Z,50.50
2019-04-29T12:43:21.559Z,50.60
2019-04-29T12:44:35.353Z,50.30
2019-04-29T12:45:37.869Z,50.40
2019-04-29T12:46:52.682Z,50.60
2019-04-29T12:47:56.789Z,50.40
2019-04-29T12:49:03.656Z,50.30
2019-04-29T12:50:07.846Z,50.40
2019-04-29T12:51:12.068Z,50.50
2019-04-29T12:52:22.088Z,50.40
2019-04-29T12:53:26.129Z,50.30
2019-04-29T12:54:30.521Z,50.20
2019-04-29T12:55:50.141Z,50.00
2019-04-29T12:56:51.043Z,49.90
2019-04-29T12:57:55.314Z,49.50
2019-04-29T12:59:01.468Z,49.20
2019-04-29T13:00:09.208Z,49.00
2019-04-29T13:01:17.888Z,48.40
2019-04-29T13:02:24.647Z,48.00
2019-04-29T13:03:48.995Z,48.00
2019-04-29T13:04:54.719Z,47.30
2019-04-29T13:06:02.514Z,47.40
2019-04-29T13:07:25.763Z,47.60
2019-04-29T13:08:31.607Z,47.60
2019-04-29T13:09:52.731Z,47.30
2019-04-29T13:10:58.551Z,48.10
2019-04-29T13:12:19.073Z,47.40
2019-04-29T13:13:08.517Z,47.40
2019-04-29T13:14:12.698Z,47.40
2019-04-29T13:15:34.754Z,47.40
2019-04-29T13:16:42.993Z,47.10
2019-04-29T13:18:02.364Z,46.60
2019-04-29T13:19:10.609Z,46.40
2019-04-29T13:20:07.237Z,46.30
2019-04-29T13:21:13.792Z,46.30
2019-04-29T13:22:17.892Z,46.40
2019-04-29T13:23:33.182Z,46.60
2019-04-29T13:24:28.079Z,47.50
2019-04-29T13:25:32.474Z,47.00
2019-04-29T13:26:40.029Z,47.10
2019-04-29T13:27:43.617Z,47.20
2019-04-29T13:29:02.984Z,47.30
2019-04-29T13:29:53.543Z,47.40
2019-04-29T13:30:58.314Z,47.50
2019-04-29T13:32:02.546Z,47.40
2019-04-29T13:33:15.952Z,47.40
2019-04-29T13:34:23.798Z,47.50
2019-04-29T13:35:19.896Z,47.80
2019-04-29T13:36:25.904Z,47.60
2019-04-29T13:37:29.857Z,46.70
2019-04-29T13:38:33.959Z,46.80
2019-04-29T13:39:40.244Z,46.90
2019-04-29T13:40:45.209Z,46.70
2019-04-29T13:41:57.635Z,46.40
2019-04-29T13:42:54.967Z,46.30
2019-04-29T13:44:05.286Z,46.50
2019-04-29T13:45:12.884Z,46.40
2019-04-29T13:46:17.222Z,46.30
2019-04-29T13:47:39.016Z,46.30
2019-04-29T13:49:12.265Z,46.30
2019-04-29T13:50:38.946Z,46.10
2019-04-29T13:51:37.602Z,45.70
2019-04-29T13:52:41.752Z,45.00
2019-04-29T13:53:45.951Z,45.10
2019-04-29T13:54:51.645Z,44.70
2019-04-29T13:56:10.304Z,44.80
2019-04-29T13:57:08.827Z,45.00
2019-04-29T13:58:07.314Z,45.20
2019-04-29T13:59:13.045Z,45.50
2019-04-29T14:00:26.406Z,45.80
2019-04-29T14:01:39.734Z,46.00
2019-04-29T14:02:42.421Z,46.10
2019-04-29T14:04:02.956Z,46.30
2019-04-29T14:05:09.901Z,46.40
2019-04-29T14:06:18.420Z,46.50
2019-04-29T14:07:21.957Z,46.40
2019-04-29T14:08:28.749Z,46.30
2019-04-29T14:09:35.096Z,46.10
2019-04-29T14:10:39.462Z,45.00
2019-04-29T14:12:00.472Z,44.40
2019-04-29T14:13:04.978Z,44.10
2019-04-29T14:13:58.483Z,44.30
2019-04-29T14:15:02.598Z,43.70
2019-04-29T14:16:07.681Z,43.90
2019-04-29T14:17:25.734Z,44.10
2019-04-29T14:18:20.654Z,44.20
2019-04-29T14:19:40.611Z,43.70
2019-04-29T14:20:30.440Z,43.70
2019-04-29T14:21:34.707Z,44.00
2019-04-29T14:22:38.932Z,43.90
2019-04-29T14:23:44.367Z,44.10
2019-04-29T14:24:51.717Z,44.20